sensor_id;sensor_type;location;lat;lon;timestamp;P1;durP1;ratioP1;P2;durP2;ratioP2
10045;SDS011;5063;50.878;4.742;2023-06-24T00:02:08;7.90;;;7.10;;
10045;SDS011;5063;50.878;4.742;2023-06-24T00:04:34;7.37;;;6.67;;
10045;SDS011;5063;50.878;4.742;2023-06-24T00:07:06;9.77;;;7.03;;
10045;SDS011;5063;50.878;4.742;2023-06-24T00:09:32;9.53;;;7.23;;
10045;SDS011;5063;50.878;4.742;2023-06-24T00:11:58;9.43;;;7.00;;
10045;SDS011;5063;50.878;4.742;2023-06-24T00:14:24;10.63;;;7.47;;
10045;SDS011;5063;50.878;4.742;2023-06-24T00:16:54;9.97;;;7.20;;
10045;SDS011;5063;50.878;4.742;2023-06-24T00:19:22;9.43;;;8.10;;
10045;SDS011;5063;50.878;4.742;2023-06-24T00:21:49;9.70;;;7.47;;
10045;SDS011;5063;50.878;4.742;2023-06-24T00:24:19;9.97;;;7.60;;
10045;SDS011;5063;50.878;4.742;2023-06-24T00:26:54;11.37;;;8.07;;
10045;SDS011;5063;50.878;4.742;2023-06-24T00:29:20;9.67;;;7.30;;
10045;SDS011;5063;50.878;4.742;2023-06-24T00:31:46;8.73;;;7.60;;
10045;SDS011;5063;50.878;4.742;2023-06-24T00:34:12;12.03;;;7.33;;
10045;SDS011;5063;50.878;4.742;2023-06-24T00:36:38;9.43;;;7.70;;
10045;SDS011;5063;50.878;4.742;2023-06-24T00:39:04;8.30;;;7.00;;
10045;SDS011;5063;50.878;4.742;2023-06-24T00:41:31;9.10;;;7.53;;
10045;SDS011;5063;50.878;4.742;2023-06-24T00:43:58;7.40;;;6.70;;
10045;SDS011;5063;50.878;4.742;2023-06-24T00:46:28;9.37;;;7.40;;
10045;SDS011;5063;50.878;4.742;2023-06-24T00:48:56;8.00;;;6.90;;
10045;SDS011;5063;50.878;4.742;2023-06-24T00:51:23;8.80;;;7.87;;
10045;SDS011;5063;50.878;4.742;2023-06-24T00:53:55;11.27;;;8.40;;
10045;SDS011;5063;50.878;4.742;2023-06-24T00:56:23;8.83;;;7.53;;
10045;SDS011;5063;50.878;4.742;2023-06-24T00:59:08;9.73;;;7.20;;
10045;SDS011;5063;50.878;4.742;2023-06-24T01:01:38;9.83;;;7.37;;
10045;SDS011;5063;50.878;4.742;2023-06-24T01:04:04;7.73;;;6.87;;
10045;SDS011;5063;50.878;4.742;2023-06-24T01:06:31;8.33;;;7.37;;
10045;SDS011;5063;50.878;4.742;2023-06-24T01:08:57;20.07;;;7.27;;
10045;SDS011;5063;50.878;4.742;2023-06-24T01:11:25;8.77;;;7.20;;
10045;SDS011;5063;50.878;4.742;2023-06-24T01:13:52;8.03;;;7.23;;
10045;SDS011;5063;50.878;4.742;2023-06-24T01:16:22;9.07;;;6.97;;
10045;SDS011;5063;50.878;4.742;2023-06-24T01:18:49;9.57;;;7.70;;
10045;SDS011;5063;50.878;4.742;2023-06-24T01:24:32;7.30;;;6.50;;
10045;SDS011;5063;50.878;4.742;2023-06-24T01:27:40;8.97;;;7.20;;
10045;SDS011;5063;50.878;4.742;2023-06-24T01:33:05;9.30;;;7.40;;
10045;SDS011;5063;50.878;4.742;2023-06-24T01:35:31;7.10;;;6.37;;
10045;SDS011;5063;50.878;4.742;2023-06-24T01:38:00;11.70;;;7.30;;
10045;SDS011;5063;50.878;4.742;2023-06-24T01:40:31;9.37;;;7.37;;
10045;SDS011;5063;50.878;4.742;2023-06-24T01:43:03;7.90;;;7.10;;
10045;SDS011;5063;50.878;4.742;2023-06-24T01:45:32;8.80;;;6.80;;
10045;SDS011;5063;50.878;4.742;2023-06-24T01:48:25;9.90;;;7.67;;
10045;SDS011;5063;50.878;4.742;2023-06-24T01:53:24;10.40;;;7.50;;
10045;SDS011;5063;50.878;4.742;2023-06-24T01:55:53;11.00;;;7.30;;
10045;SDS011;5063;50.878;4.742;2023-06-24T01:58:22;10.80;;;7.30;;
10045;SDS011;5063;50.878;4.742;2023-06-24T02:00:48;17.60;;;6.97;;
10045;SDS011;5063;50.878;4.742;2023-06-24T02:03:15;12.90;;;7.03;;
10045;SDS011;5063;50.878;4.742;2023-06-24T02:05:42;7.33;;;6.47;;
10045;SDS011;5063;50.878;4.742;2023-06-24T02:08:09;8.60;;;6.20;;
10045;SDS011;5063;50.878;4.742;2023-06-24T02:10:39;8.33;;;5.67;;
10045;SDS011;5063;50.878;4.742;2023-06-24T02:13:05;6.47;;;5.57;;
10045;SDS011;5063;50.878;4.742;2023-06-24T02:15:34;7.20;;;5.87;;
10045;SDS011;5063;50.878;4.742;2023-06-24T02:18:03;9.37;;;5.20;;
10045;SDS011;5063;50.878;4.742;2023-06-24T02:20:30;8.07;;;5.47;;
10045;SDS011;5063;50.878;4.742;2023-06-24T02:22:56;8.20;;;5.60;;
10045;SDS011;5063;50.878;4.742;2023-06-24T02:25:24;6.13;;;5.40;;
10045;SDS011;5063;50.878;4.742;2023-06-24T02:27:51;6.70;;;5.37;;
10045;SDS011;5063;50.878;4.742;2023-06-24T02:30:21;7.37;;;5.23;;
10045;SDS011;5063;50.878;4.742;2023-06-24T02:32:48;6.47;;;5.00;;
10045;SDS011;5063;50.878;4.742;2023-06-24T02:35:14;5.77;;;5.17;;
10045;SDS011;5063;50.878;4.742;2023-06-24T02:37:39;5.97;;;4.87;;
10045;SDS011;5063;50.878;4.742;2023-06-24T02:40:05;6.30;;;5.03;;
10045;SDS011;5063;50.878;4.742;2023-06-24T02:42:33;5.83;;;5.03;;
10045;SDS011;5063;50.878;4.742;2023-06-24T02:44:59;6.03;;;5.13;;
10045;SDS011;5063;50.878;4.742;2023-06-24T02:47:25;6.77;;;5.00;;
10045;SDS011;5063;50.878;4.742;2023-06-24T02:49:51;6.30;;;5.33;;
10045;SDS011;5063;50.878;4.742;2023-06-24T02:52:19;5.17;;;4.63;;
10045;SDS011;5063;50.878;4.742;2023-06-24T02:54:45;5.67;;;4.57;;
10045;SDS011;5063;50.878;4.742;2023-06-24T02:57:11;5.93;;;5.00;;
10045;SDS011;5063;50.878;4.742;2023-06-24T02:59:40;6.37;;;5.37;;
10045;SDS011;5063;50.878;4.742;2023-06-24T03:02:06;7.33;;;4.87;;
10045;SDS011;5063;50.878;4.742;2023-06-24T03:04:32;6.90;;;4.87;;
10045;SDS011;5063;50.878;4.742;2023-06-24T03:06:59;5.97;;;5.10;;
10045;SDS011;5063;50.878;4.742;2023-06-24T03:09:32;5.40;;;4.60;;
10045;SDS011;5063;50.878;4.742;2023-06-24T03:11:59;5.80;;;4.90;;
10045;SDS011;5063;50.878;4.742;2023-06-24T03:14:25;6.67;;;5.37;;
10045;SDS011;5063;50.878;4.742;2023-06-24T03:16:51;5.73;;;5.23;;
10045;SDS011;5063;50.878;4.742;2023-06-24T03:19:16;5.63;;;4.90;;
10045;SDS011;5063;50.878;4.742;2023-06-24T03:21:42;5.83;;;4.93;;
10045;SDS011;5063;50.878;4.742;2023-06-24T03:24:08;10.10;;;5.70;;
10045;SDS011;5063;50.878;4.742;2023-06-24T03:26:34;4.93;;;4.43;;
10045;SDS011;5063;50.878;4.742;2023-06-24T03:29:02;5.80;;;5.20;;
10045;SDS011;5063;50.878;4.742;2023-06-24T03:31:28;7.57;;;5.13;;
10045;SDS011;5063;50.878;4.742;2023-06-24T03:33:54;11.23;;;5.93;;
10045;SDS011;5063;50.878;4.742;2023-06-24T03:36:20;7.43;;;5.47;;
10045;SDS011;5063;50.878;4.742;2023-06-24T03:38:45;9.77;;;6.17;;
10045;SDS011;5063;50.878;4.742;2023-06-24T03:41:11;5.87;;;4.80;;
10045;SDS011;5063;50.878;4.742;2023-06-24T03:43:37;8.27;;;5.50;;
10045;SDS011;5063;50.878;4.742;2023-06-24T03:46:04;5.77;;;5.17;;
10045;SDS011;5063;50.878;4.742;2023-06-24T03:48:30;7.30;;;5.20;;
10045;SDS011;5063;50.878;4.742;2023-06-24T03:50:56;7.13;;;5.17;;
10045;SDS011;5063;50.878;4.742;2023-06-24T03:53:21;8.67;;;4.97;;
10045;SDS011;5063;50.878;4.742;2023-06-24T03:55:47;8.77;;;5.60;;
10045;SDS011;5063;50.878;4.742;2023-06-24T03:58:13;7.73;;;5.53;;
10045;SDS011;5063;50.878;4.742;2023-06-24T04:00:42;6.23;;;5.63;;
10045;SDS011;5063;50.878;4.742;2023-06-24T04:03:09;6.13;;;5.53;;
10045;SDS011;5063;50.878;4.742;2023-06-24T04:05:34;6.10;;;5.20;;
10045;SDS011;5063;50.878;4.742;2023-06-24T04:08:00;7.90;;;4.87;;
10045;SDS011;5063;50.878;4.742;2023-06-24T04:10:31;6.27;;;5.67;;
10045;SDS011;5063;50.878;4.742;2023-06-24T04:12:57;6.07;;;5.40;;
10045;SDS011;5063;50.878;4.742;2023-06-24T04:15:23;6.53;;;5.50;;
10045;SDS011;5063;50.878;4.742;2023-06-24T04:17:48;7.20;;;5.70;;
10045;SDS011;5063;50.878;4.742;2023-06-24T04:20:14;7.17;;;5.20;;
10045;SDS011;5063;50.878;4.742;2023-06-24T04:22:40;5.33;;;4.83;;
10045;SDS011;5063;50.878;4.742;2023-06-24T04:25:07;9.53;;;5.77;;
10045;SDS011;5063;50.878;4.742;2023-06-24T04:27:33;6.53;;;5.47;;
10045;SDS011;5063;50.878;4.742;2023-06-24T04:30:00;6.93;;;5.30;;
10045;SDS011;5063;50.878;4.742;2023-06-24T04:32:26;6.73;;;5.03;;
10045;SDS011;5063;50.878;4.742;2023-06-24T04:34:52;5.20;;;4.50;;
10045;SDS011;5063;50.878;4.742;2023-06-24T04:37:18;6.53;;;5.60;;
10045;SDS011;5063;50.878;4.742;2023-06-24T04:39:44;8.20;;;5.43;;
10045;SDS011;5063;50.878;4.742;2023-06-24T04:42:10;8.37;;;5.53;;
10045;SDS011;5063;50.878;4.742;2023-06-24T04:44:36;6.23;;;5.63;;
10045;SDS011;5063;50.878;4.742;2023-06-24T04:47:02;10.93;;;5.03;;
10045;SDS011;5063;50.878;4.742;2023-06-24T04:49:28;5.80;;;4.97;;
10045;SDS011;5063;50.878;4.742;2023-06-24T04:51:54;5.67;;;5.07;;
10045;SDS011;5063;50.878;4.742;2023-06-24T04:54:20;5.33;;;4.83;;
10045;SDS011;5063;50.878;4.742;2023-06-24T04:56:45;10.53;;;5.17;;
10045;SDS011;5063;50.878;4.742;2023-06-24T04:59:13;8.33;;;5.43;;
10045;SDS011;5063;50.878;4.742;2023-06-24T05:01:39;7.07;;;4.77;;
10045;SDS011;5063;50.878;4.742;2023-06-24T05:04:05;6.00;;;5.40;;
10045;SDS011;5063;50.878;4.742;2023-06-24T05:06:30;6.10;;;4.77;;
10045;SDS011;5063;50.878;4.742;2023-06-24T05:08:56;5.50;;;4.47;;
10045;SDS011;5063;50.878;4.742;2023-06-24T05:11:22;8.17;;;4.30;;
10045;SDS011;5063;50.878;4.742;2023-06-24T05:13:48;5.70;;;4.07;;
10045;SDS011;5063;50.878;4.742;2023-06-24T05:16:13;4.30;;;3.70;;
10045;SDS011;5063;50.878;4.742;2023-06-24T05:18:39;4.68;;;3.70;;
10045;SDS011;5063;50.878;4.742;2023-06-24T05:21:05;5.53;;;3.70;;
10045;SDS011;5063;50.878;4.742;2023-06-24T05:23:31;4.32;;;3.40;;
10045;SDS011;5063;50.878;4.742;2023-06-24T05:25:57;5.78;;;3.45;;
10045;SDS011;5063;50.878;4.742;2023-06-24T05:28:22;4.50;;;3.40;;
10045;SDS011;5063;50.878;4.742;2023-06-24T05:30:48;4.10;;;3.70;;
10045;SDS011;5063;50.878;4.742;2023-06-24T05:33:14;4.22;;;3.00;;
10045;SDS011;5063;50.878;4.742;2023-06-24T05:35:40;4.45;;;3.22;;
10045;SDS011;5063;50.878;4.742;2023-06-24T05:38:07;6.20;;;3.05;;
10045;SDS011;5063;50.878;4.742;2023-06-24T05:40:33;4.30;;;2.83;;
10045;SDS011;5063;50.878;4.742;2023-06-24T05:42:59;4.85;;;3.15;;
10045;SDS011;5063;50.878;4.742;2023-06-24T05:45:26;4.63;;;3.20;;
10045;SDS011;5063;50.878;4.742;2023-06-24T05:47:52;4.38;;;2.88;;
10045;SDS011;5063;50.878;4.742;2023-06-24T05:50:17;4.82;;;2.97;;
10045;SDS011;5063;50.878;4.742;2023-06-24T05:52:43;8.50;;;3.20;;
10045;SDS011;5063;50.878;4.742;2023-06-24T05:55:09;3.83;;;2.63;;
10045;SDS011;5063;50.878;4.742;2023-06-24T05:57:35;3.05;;;2.45;;
10045;SDS011;5063;50.878;4.742;2023-06-24T06:00:02;3.53;;;3.22;;
10045;SDS011;5063;50.878;4.742;2023-06-24T06:02:28;3.25;;;2.70;;
10045;SDS011;5063;50.878;4.742;2023-06-24T06:04:54;5.85;;;2.75;;
10045;SDS011;5063;50.878;4.742;2023-06-24T06:07:20;2.90;;;2.65;;
10045;SDS011;5063;50.878;4.742;2023-06-24T06:09:45;4.35;;;2.65;;
10045;SDS011;5063;50.878;4.742;2023-06-24T06:12:11;3.78;;;3.20;;
10045;SDS011;5063;50.878;4.742;2023-06-24T06:14:37;4.18;;;2.88;;
10045;SDS011;5063;50.878;4.742;2023-06-24T06:17:03;2.90;;;2.50;;
10045;SDS011;5063;50.878;4.742;2023-06-24T06:19:29;3.05;;;2.53;;
10045;SDS011;5063;50.878;4.742;2023-06-24T06:21:54;2.95;;;2.55;;
10045;SDS011;5063;50.878;4.742;2023-06-24T06:24:20;2.90;;;2.17;;
10045;SDS011;5063;50.878;4.742;2023-06-24T06:26:46;3.65;;;2.80;;
10045;SDS011;5063;50.878;4.742;2023-06-24T06:29:12;2.70;;;2.50;;
10045;SDS011;5063;50.878;4.742;2023-06-24T06:31:37;3.45;;;2.60;;
10045;SDS011;5063;50.878;4.742;2023-06-24T06:34:04;3.95;;;2.55;;
10045;SDS011;5063;50.878;4.742;2023-06-24T06:36:30;3.28;;;2.30;;
10045;SDS011;5063;50.878;4.742;2023-06-24T06:38:56;2.53;;;2.10;;
10045;SDS011;5063;50.878;4.742;2023-06-24T06:41:22;3.17;;;2.55;;
10045;SDS011;5063;50.878;4.742;2023-06-24T06:43:55;5.22;;;2.47;;
10045;SDS011;5063;50.878;4.742;2023-06-24T06:46:21;3.45;;;2.50;;
10045;SDS011;5063;50.878;4.742;2023-06-24T06:48:47;2.30;;;2.10;;
10045;SDS011;5063;50.878;4.742;2023-06-24T06:51:13;2.30;;;2.10;;
10045;SDS011;5063;50.878;4.742;2023-06-24T06:53:38;4.57;;;2.28;;
10045;SDS011;5063;50.878;4.742;2023-06-24T06:56:04;3.42;;;2.58;;
10045;SDS011;5063;50.878;4.742;2023-06-24T06:58:30;4.43;;;2.40;;
10045;SDS011;5063;50.878;4.742;2023-06-24T07:00:56;3.53;;;2.58;;
10045;SDS011;5063;50.878;4.742;2023-06-24T07:03:26;3.13;;;2.80;;
10045;SDS011;5063;50.878;4.742;2023-06-24T07:05:53;4.05;;;2.40;;
10045;SDS011;5063;50.878;4.742;2023-06-24T07:08:19;2.40;;;2.20;;
10045;SDS011;5063;50.878;4.742;2023-06-24T07:10:44;2.78;;;2.30;;
10045;SDS011;5063;50.878;4.742;2023-06-24T07:13:10;3.50;;;2.65;;
10045;SDS011;5063;50.878;4.742;2023-06-24T07:15:36;2.78;;;2.58;;
10045;SDS011;5063;50.878;4.742;2023-06-24T07:18:02;2.63;;;1.95;;
10045;SDS011;5063;50.878;4.742;2023-06-24T07:20:28;3.95;;;2.33;;
10045;SDS011;5063;50.878;4.742;2023-06-24T07:22:53;2.90;;;2.53;;
10045;SDS011;5063;50.878;4.742;2023-06-24T07:25:19;3.38;;;2.30;;
10045;SDS011;5063;50.878;4.742;2023-06-24T07:27:45;2.92;;;2.40;;
10045;SDS011;5063;50.878;4.742;2023-06-24T07:30:11;2.65;;;2.45;;
10045;SDS011;5063;50.878;4.742;2023-06-24T07:32:37;4.78;;;2.97;;
10045;SDS011;5063;50.878;4.742;2023-06-24T07:35:02;2.58;;;2.38;;
10045;SDS011;5063;50.878;4.742;2023-06-24T07:37:28;2.85;;;2.53;;
10045;SDS011;5063;50.878;4.742;2023-06-24T07:39:54;3.20;;;2.53;;
10045;SDS011;5063;50.878;4.742;2023-06-24T07:42:20;2.75;;;2.50;;
10045;SDS011;5063;50.878;4.742;2023-06-24T07:44:46;2.75;;;2.25;;
10045;SDS011;5063;50.878;4.742;2023-06-24T07:47:13;4.55;;;2.70;;
10045;SDS011;5063;50.878;4.742;2023-06-24T07:49:40;2.92;;;2.20;;
10045;SDS011;5063;50.878;4.742;2023-06-24T07:52:06;3.42;;;2.33;;
10045;SDS011;5063;50.878;4.742;2023-06-24T07:54:32;2.55;;;2.35;;
10045;SDS011;5063;50.878;4.742;2023-06-24T07:56:58;3.50;;;2.78;;
10045;SDS011;5063;50.878;4.742;2023-06-24T07:59:24;2.90;;;2.60;;
10045;SDS011;5063;50.878;4.742;2023-06-24T08:01:50;4.25;;;2.78;;
10045;SDS011;5063;50.878;4.742;2023-06-24T08:04:16;2.65;;;2.20;;
10045;SDS011;5063;50.878;4.742;2023-06-24T08:06:42;3.15;;;2.20;;
10045;SDS011;5063;50.878;4.742;2023-06-24T08:09:07;3.30;;;2.33;;
10045;SDS011;5063;50.878;4.742;2023-06-24T08:11:34;4.32;;;2.33;;
10045;SDS011;5063;50.878;4.742;2023-06-24T08:14:00;2.90;;;2.35;;
10045;SDS011;5063;50.878;4.742;2023-06-24T08:16:27;3.63;;;2.40;;
10045;SDS011;5063;50.878;4.742;2023-06-24T08:18:52;3.05;;;2.40;;
10045;SDS011;5063;50.878;4.742;2023-06-24T08:21:18;4.13;;;2.30;;
10045;SDS011;5063;50.878;4.742;2023-06-24T08:23:45;2.20;;;2.00;;
10045;SDS011;5063;50.878;4.742;2023-06-24T08:26:11;2.30;;;2.10;;
10045;SDS011;5063;50.878;4.742;2023-06-24T08:28:37;2.33;;;2.10;;
10045;SDS011;5063;50.878;4.742;2023-06-24T08:31:03;2.83;;;2.08;;
10045;SDS011;5063;50.878;4.742;2023-06-24T08:33:28;2.78;;;2.10;;
10045;SDS011;5063;50.878;4.742;2023-06-24T08:35:54;2.80;;;2.10;;
10045;SDS011;5063;50.878;4.742;2023-06-24T08:38:20;2.85;;;1.88;;
10045;SDS011;5063;50.878;4.742;2023-06-24T08:40:46;2.55;;;2.08;;
10045;SDS011;5063;50.878;4.742;2023-06-24T08:43:14;2.13;;;1.92;;
10045;SDS011;5063;50.878;4.742;2023-06-24T08:45:40;1.75;;;1.65;;
10045;SDS011;5063;50.878;4.742;2023-06-24T08:48:05;2.53;;;2.20;;
10045;SDS011;5063;50.878;4.742;2023-06-24T08:50:35;3.97;;;2.38;;
10045;SDS011;5063;50.878;4.742;2023-06-24T08:53:03;2.28;;;2.08;;
10045;SDS011;5063;50.878;4.742;2023-06-24T08:55:35;15.98;;;3.55;;
10045;SDS011;5063;50.878;4.742;2023-06-24T08:58:07;2.45;;;2.20;;
10045;SDS011;5063;50.878;4.742;2023-06-24T09:00:33;1.80;;;1.65;;
10045;SDS011;5063;50.878;4.742;2023-06-24T09:03:00;3.70;;;1.90;;
10045;SDS011;5063;50.878;4.742;2023-06-24T09:05:25;1.92;;;1.73;;
10045;SDS011;5063;50.878;4.742;2023-06-24T09:07:51;2.95;;;2.05;;
10045;SDS011;5063;50.878;4.742;2023-06-24T09:10:30;2.88;;;1.88;;
10045;SDS011;5063;50.878;4.742;2023-06-24T09:12:58;2.47;;;2.05;;
10045;SDS011;5063;50.878;4.742;2023-06-24T09:15:24;2.20;;;1.90;;
10045;SDS011;5063;50.878;4.742;2023-06-24T09:17:50;4.50;;;2.10;;
10045;SDS011;5063;50.878;4.742;2023-06-24T09:20:16;2.08;;;1.85;;
10045;SDS011;5063;50.878;4.742;2023-06-24T09:22:46;1.95;;;1.80;;
10045;SDS011;5063;50.878;4.742;2023-06-24T09:25:18;2.38;;;2.10;;
10045;SDS011;5063;50.878;4.742;2023-06-24T09:27:48;2.35;;;2.13;;
10045;SDS011;5063;50.878;4.742;2023-06-24T09:30:26;2.47;;;1.80;;
10045;SDS011;5063;50.878;4.742;2023-06-24T09:32:52;4.15;;;2.00;;
10045;SDS011;5063;50.878;4.742;2023-06-24T09:35:19;2.40;;;2.20;;
10045;SDS011;5063;50.878;4.742;2023-06-24T09:37:53;2.25;;;1.75;;
10045;SDS011;5063;50.878;4.742;2023-06-24T09:40:19;2.13;;;1.67;;
10045;SDS011;5063;50.878;4.742;2023-06-24T09:42:53;3.50;;;1.67;;
10045;SDS011;5063;50.878;4.742;2023-06-24T09:45:24;2.65;;;1.80;;
10045;SDS011;5063;50.878;4.742;2023-06-24T09:47:54;2.10;;;1.90;;
10045;SDS011;5063;50.878;4.742;2023-06-24T09:50:20;3.05;;;1.85;;
10045;SDS011;5063;50.878;4.742;2023-06-24T09:52:48;3.65;;;1.98;;
10045;SDS011;5063;50.878;4.742;2023-06-24T09:55:15;2.22;;;2.03;;
10045;SDS011;5063;50.878;4.742;2023-06-24T09:57:46;2.13;;;1.92;;
10045;SDS011;5063;50.878;4.742;2023-06-24T10:00:15;2.15;;;1.80;;
10045;SDS011;5063;50.878;4.742;2023-06-24T10:02:43;2.80;;;2.17;;
10045;SDS011;5063;50.878;4.742;2023-06-24T10:05:11;2.70;;;1.95;;
10045;SDS011;5063;50.878;4.742;2023-06-24T10:07:41;2.22;;;1.90;;
10045;SDS011;5063;50.878;4.742;2023-06-24T10:10:08;4.15;;;2.05;;
10045;SDS011;5063;50.878;4.742;2023-06-24T10:12:34;2.20;;;1.70;;
10045;SDS011;5063;50.878;4.742;2023-06-24T10:15:00;1.77;;;1.67;;
10045;SDS011;5063;50.878;4.742;2023-06-24T10:17:27;1.77;;;1.67;;
10045;SDS011;5063;50.878;4.742;2023-06-24T10:19:53;3.55;;;1.80;;
10045;SDS011;5063;50.878;4.742;2023-06-24T10:22:22;2.42;;;2.10;;
10045;SDS011;5063;50.878;4.742;2023-06-24T10:24:50;1.70;;;1.60;;
10045;SDS011;5063;50.878;4.742;2023-06-24T10:27:23;2.08;;;1.90;;
10045;SDS011;5063;50.878;4.742;2023-06-24T10:29:50;1.73;;;1.63;;
10045;SDS011;5063;50.878;4.742;2023-06-24T10:32:17;2.45;;;1.67;;
10045;SDS011;5063;50.878;4.742;2023-06-24T10:34:45;2.10;;;1.90;;
10045;SDS011;5063;50.878;4.742;2023-06-24T10:37:13;2.05;;;1.77;;
10045;SDS011;5063;50.878;4.742;2023-06-24T10:39:46;2.42;;;1.88;;
10045;SDS011;5063;50.878;4.742;2023-06-24T10:42:25;4.28;;;2.30;;
10045;SDS011;5063;50.878;4.742;2023-06-24T10:44:51;2.50;;;1.80;;
10045;SDS011;5063;50.878;4.742;2023-06-24T10:47:18;2.05;;;1.55;;
10045;SDS011;5063;50.878;4.742;2023-06-24T10:49:45;3.85;;;1.95;;
10045;SDS011;5063;50.878;4.742;2023-06-24T10:52:11;2.78;;;2.28;;
10045;SDS011;5063;50.878;4.742;2023-06-24T10:54:38;2.15;;;1.95;;
10045;SDS011;5063;50.878;4.742;2023-06-24T10:57:05;1.95;;;1.80;;
10045;SDS011;5063;50.878;4.742;2023-06-24T10:59:34;1.85;;;1.75;;
10045;SDS011;5063;50.878;4.742;2023-06-24T11:02:00;1.83;;;1.73;;
10045;SDS011;5063;50.878;4.742;2023-06-24T11:04:26;2.03;;;1.75;;
10045;SDS011;5063;50.878;4.742;2023-06-24T11:07:01;1.63;;;1.52;;
10045;SDS011;5063;50.878;4.742;2023-06-24T11:09:27;1.77;;;1.58;;
10045;SDS011;5063;50.878;4.742;2023-06-24T11:11:53;2.55;;;2.00;;
10045;SDS011;5063;50.878;4.742;2023-06-24T11:14:19;2.08;;;1.88;;
10045;SDS011;5063;50.878;4.742;2023-06-24T11:16:45;2.08;;;1.88;;
10045;SDS011;5063;50.878;4.742;2023-06-24T11:19:11;2.47;;;2.13;;
10045;SDS011;5063;50.878;4.742;2023-06-24T11:21:38;5.07;;;1.98;;
10045;SDS011;5063;50.878;4.742;2023-06-24T11:24:04;1.73;;;1.63;;
10045;SDS011;5063;50.878;4.742;2023-06-24T11:26:30;1.50;;;1.40;;
10045;SDS011;5063;50.878;4.742;2023-06-24T11:28:56;1.80;;;1.70;;
10045;SDS011;5063;50.878;4.742;2023-06-24T11:31:28;1.75;;;1.65;;
10045;SDS011;5063;50.878;4.742;2023-06-24T11:33:58;2.45;;;1.83;;
10045;SDS011;5063;50.878;4.742;2023-06-24T11:36:23;1.92;;;1.75;;
10045;SDS011;5063;50.878;4.742;2023-06-24T11:38:49;2.33;;;1.70;;
10045;SDS011;5063;50.878;4.742;2023-06-24T11:41:15;2.80;;;1.65;;
10045;SDS011;5063;50.878;4.742;2023-06-24T11:43:47;3.40;;;1.85;;
10045;SDS011;5063;50.878;4.742;2023-06-24T11:48:51;2.65;;;1.70;;
10045;SDS011;5063;50.878;4.742;2023-06-24T11:51:18;2.40;;;1.88;;
10045;SDS011;5063;50.878;4.742;2023-06-24T11:53:44;2.55;;;2.03;;
10045;SDS011;5063;50.878;4.742;2023-06-24T11:56:13;1.83;;;1.73;;
10045;SDS011;5063;50.878;4.742;2023-06-24T11:58:39;1.98;;;1.83;;
10045;SDS011;5063;50.878;4.742;2023-06-24T12:01:07;1.92;;;1.70;;
10045;SDS011;5063;50.878;4.742;2023-06-24T12:03:33;1.95;;;1.85;;
10045;SDS011;5063;50.878;4.742;2023-06-24T12:06:00;1.95;;;1.73;;
10045;SDS011;5063;50.878;4.742;2023-06-24T12:08:26;2.13;;;1.92;;
10045;SDS011;5063;50.878;4.742;2023-06-24T12:10:52;1.65;;;1.55;;
10045;SDS011;5063;50.878;4.742;2023-06-24T12:13:17;1.95;;;1.80;;
10045;SDS011;5063;50.878;4.742;2023-06-24T12:15:43;3.75;;;2.10;;
10045;SDS011;5063;50.878;4.742;2023-06-24T12:18:09;2.30;;;2.10;;
10045;SDS011;5063;50.878;4.742;2023-06-24T12:20:36;1.95;;;1.75;;
10045;SDS011;5063;50.878;4.742;2023-06-24T12:23:02;2.38;;;1.65;;
10045;SDS011;5063;50.878;4.742;2023-06-24T12:25:28;2.17;;;1.90;;
10045;SDS011;5063;50.878;4.742;2023-06-24T12:27:54;2.28;;;1.95;;
10045;SDS011;5063;50.878;4.742;2023-06-24T12:30:20;2.08;;;1.63;;
10045;SDS011;5063;50.878;4.742;2023-06-24T12:32:49;1.90;;;1.80;;
10045;SDS011;5063;50.878;4.742;2023-06-24T12:35:16;2.85;;;1.83;;
10045;SDS011;5063;50.878;4.742;2023-06-24T12:37:42;2.58;;;1.60;;
10045;SDS011;5063;50.878;4.742;2023-06-24T12:40:10;2.78;;;1.98;;
10045;SDS011;5063;50.878;4.742;2023-06-24T12:42:36;2.25;;;1.85;;
10045;SDS011;5063;50.878;4.742;2023-06-24T12:45:02;2.70;;;1.95;;
10045;SDS011;5063;50.878;4.742;2023-06-24T12:47:28;4.60;;;2.35;;
10045;SDS011;5063;50.878;4.742;2023-06-24T12:49:54;2.50;;;1.92;;
10045;SDS011;5063;50.878;4.742;2023-06-24T12:52:19;1.98;;;1.80;;
10045;SDS011;5063;50.878;4.742;2023-06-24T12:54:45;2.95;;;2.22;;
10045;SDS011;5063;50.878;4.742;2023-06-24T12:57:11;2.08;;;1.85;;
10045;SDS011;5063;50.878;4.742;2023-06-24T12:59:37;2.55;;;2.35;;
10045;SDS011;5063;50.878;4.742;2023-06-24T13:02:03;2.58;;;1.98;;
10045;SDS011;5063;50.878;4.742;2023-06-24T13:04:29;2.08;;;1.77;;
10045;SDS011;5063;50.878;4.742;2023-06-24T13:06:55;2.08;;;1.88;;
10045;SDS011;5063;50.878;4.742;2023-06-24T13:09:20;2.40;;;2.20;;
10045;SDS011;5063;50.878;4.742;2023-06-24T13:11:46;2.20;;;2.00;;
10045;SDS011;5063;50.878;4.742;2023-06-24T13:14:13;2.20;;;2.00;;
10045;SDS011;5063;50.878;4.742;2023-06-24T13:16:39;2.10;;;1.90;;
10045;SDS011;5063;50.878;4.742;2023-06-24T13:19:05;2.13;;;1.92;;
10045;SDS011;5063;50.878;4.742;2023-06-24T13:21:30;2.10;;;1.90;;
10045;SDS011;5063;50.878;4.742;2023-06-24T13:23:56;2.80;;;1.90;;
10045;SDS011;5063;50.878;4.742;2023-06-24T13:26:22;2.10;;;1.90;;
10045;SDS011;5063;50.878;4.742;2023-06-24T13:28:49;2.20;;;2.00;;
10045;SDS011;5063;50.878;4.742;2023-06-24T13:31:15;3.33;;;1.95;;
10045;SDS011;5063;50.878;4.742;2023-06-24T13:33:41;3.90;;;2.40;;
10045;SDS011;5063;50.878;4.742;2023-06-24T13:36:07;2.67;;;2.20;;
10045;SDS011;5063;50.878;4.742;2023-06-24T13:38:37;1.90;;;1.80;;
10045;SDS011;5063;50.878;4.742;2023-06-24T13:41:02;2.03;;;1.92;;
10045;SDS011;5063;50.878;4.742;2023-06-24T13:43:28;2.08;;;1.80;;
10045;SDS011;5063;50.878;4.742;2023-06-24T13:45:54;2.63;;;2.10;;
10045;SDS011;5063;50.878;4.742;2023-06-24T13:48:19;2.50;;;1.92;;
10045;SDS011;5063;50.878;4.742;2023-06-24T13:50:45;3.45;;;2.30;;
10045;SDS011;5063;50.878;4.742;2023-06-24T13:53:11;3.30;;;1.85;;
10045;SDS011;5063;50.878;4.742;2023-06-24T13:55:37;2.42;;;1.98;;
10045;SDS011;5063;50.878;4.742;2023-06-24T13:58:03;3.40;;;2.13;;
10045;SDS011;5063;50.878;4.742;2023-06-24T14:00:29;2.20;;;2.00;;
10045;SDS011;5063;50.878;4.742;2023-06-24T14:02:55;2.75;;;2.25;;
10045;SDS011;5063;50.878;4.742;2023-06-24T14:05:20;2.33;;;2.00;;
10045;SDS011;5063;50.878;4.742;2023-06-24T14:07:46;2.10;;;1.90;;
10045;SDS011;5063;50.878;4.742;2023-06-24T14:10:12;2.17;;;1.98;;
10045;SDS011;5063;50.878;4.742;2023-06-24T14:12:38;2.17;;;1.98;;
10045;SDS011;5063;50.878;4.742;2023-06-24T14:15:07;2.42;;;2.22;;
10045;SDS011;5063;50.878;4.742;2023-06-24T14:17:34;6.47;;;2.17;;
10045;SDS011;5063;50.878;4.742;2023-06-24T14:19:59;2.75;;;1.88;;
10045;SDS011;5063;50.878;4.742;2023-06-24T14:22:25;2.50;;;2.10;;
10045;SDS011;5063;50.878;4.742;2023-06-24T14:24:51;2.08;;;1.90;;
10045;SDS011;5063;50.878;4.742;2023-06-24T14:27:17;3.45;;;2.22;;
10045;SDS011;5063;50.878;4.742;2023-06-24T14:29:42;2.22;;;2.03;;
10045;SDS011;5063;50.878;4.742;2023-06-24T14:32:08;2.55;;;2.20;;
10045;SDS011;5063;50.878;4.742;2023-06-24T14:34:34;2.22;;;1.92;;
10045;SDS011;5063;50.878;4.742;2023-06-24T14:37:00;2.63;;;2.10;;
10045;SDS011;5063;50.878;4.742;2023-06-24T14:39:26;2.75;;;2.47;;
10045;SDS011;5063;50.878;4.742;2023-06-24T14:41:53;2.92;;;2.35;;
10045;SDS011;5063;50.878;4.742;2023-06-24T14:44:19;2.20;;;2.00;;
10045;SDS011;5063;50.878;4.742;2023-06-24T14:46:44;3.03;;;2.08;;
10045;SDS011;5063;50.878;4.742;2023-06-24T14:49:10;2.25;;;2.03;;
10045;SDS011;5063;50.878;4.742;2023-06-24T14:51:36;3.30;;;2.53;;
10045;SDS011;5063;50.878;4.742;2023-06-24T14:54:02;2.80;;;2.47;;
10045;SDS011;5063;50.878;4.742;2023-06-24T14:56:27;2.25;;;2.05;;
10045;SDS011;5063;50.878;4.742;2023-06-24T14:58:53;3.13;;;2.20;;
10045;SDS011;5063;50.878;4.742;2023-06-24T15:01:19;2.20;;;1.95;;
10045;SDS011;5063;50.878;4.742;2023-06-24T15:03:45;2.40;;;2.20;;
10045;SDS011;5063;50.878;4.742;2023-06-24T15:06:10;2.00;;;1.80;;
10045;SDS011;5063;50.878;4.742;2023-06-24T15:08:36;3.75;;;2.03;;
10045;SDS011;5063;50.878;4.742;2023-06-24T15:11:02;5.05;;;2.22;;